Time;durP1;ratioP1;P1;durP2;ratioP2;P2;SDS_P1;SDS_P2;PMS_P1;PMS_P2;Temp;Humidity;BMP_temperature;BMP_pressure;BME280_temperature;BME280_humidity;BME280_pressure;Samples;Min_cycle;Max_cycle;Signal;HPM_P1;HPM_P2
2024/02/16 00:00:01;;;;;;;2.40;1.35;;;19.50;59.60;;;;;;5021316;28;20048;-65
2024/02/16 00:02:27;;;;;;;2.03;1.40;;;19.60;59.00;;;;;;5018291;28;20036;-67
2024/02/16 00:04:52;;;;;;;3.15;1.33;;;19.60;59.00;;;;;;5014736;28;20030;-61
2024/02/16 00:07:18;;;;;;;2.58;1.55;;;19.60;59.00;;;;;;5019208;28;20053;-65
2024/02/16 00:09:43;;;;;;;2.70;1.33;;;19.60;59.00;;;;;;5001942;28;20496;-65
2024/02/16 00:12:09;;;;;;;3.05;1.52;;;19.60;59.00;;;;;;5019921;28;20056;-68
2024/02/16 00:14:34;;;;;;;3.28;1.30;;;19.60;59.00;;;;;;4999296;28;20037;-66
2024/02/16 00:17:00;;;;;;;1.80;1.45;;;19.60;58.90;;;;;;5021653;28;20044;-65
2024/02/16 00:19:26;;;;;;;1.67;1.10;;;19.60;58.90;;;;;;5017692;28;20025;-65
2024/02/16 00:21:51;;;;;;;1.23;1.13;;;19.60;58.90;;;;;;5020410;28;20030;-65
2024/02/16 00:24:17;;;;;;;2.53;1.40;;;19.50;58.90;;;;;;5018847;28;20075;-67
2024/02/16 00:26:45;;;;;;;1.60;1.33;;;19.60;58.90;;;;;;5010006;28;20116;-64
2024/02/16 00:29:10;;;;;;;1.85;1.23;;;19.60;58.90;;;;;;5016291;28;20140;-66
2024/02/16 00:31:36;;;;;;;1.80;1.20;;;19.50;58.80;;;;;;5020377;28;20607;-67
2024/02/16 00:34:02;;;;;;;1.98;1.35;;;19.60;58.90;;;;;;5002749;28;20471;-65
2024/02/16 00:36:27;;;;;;;2.95;1.42;;;19.50;58.80;;;;;;4995497;28;20083;-60
2024/02/16 00:38:53;;;;;;;1.45;1.35;;;19.50;58.80;;;;;;5021197;28;20030;-65
2024/02/16 00:41:23;;;;;;;1.38;1.27;;;19.50;58.90;;;;;;5003908;28;20050;-64
2024/02/16 00:43:49;;;;;;;1.10;1.00;;;19.60;58.90;;;;;;5019736;28;20152;-65
2024/02/16 00:46:15;;;;;;;1.65;1.33;;;19.50;58.80;;;;;;5002632;28;20554;-67
2024/02/16 00:48:40;;;;;;;1.92;1.23;;;19.50;58.80;;;;;;5021708;28;20037;-65
2024/02/16 00:51:06;;;;;;;1.52;1.30;;;19.60;58.90;;;;;;5020296;28;20059;-68
2024/02/16 00:53:31;;;;;;;2.28;1.00;;;19.50;58.80;;;;;;5019131;28;20029;-66
2024/02/16 00:55:57;;;;;;;1.42;1.15;;;19.50;58.80;;;;;;5002658;28;20036;-67
2024/02/16 00:58:22;;;;;;;1.50;1.27;;;19.60;58.90;;;;;;5020816;28;20037;-66
2024/02/16 01:00:48;;;;;;;1.65;1.30;;;19.50;58.80;;;;;;5003859;28;20057;-63
2024/02/16 01:03:13;;;;;;;1.65;1.08;;;19.60;58.90;;;;;;5019710;28;20100;-66
2024/02/16 01:05:40;;;;;;;2.25;1.10;;;19.60;58.80;;;;;;5022194;28;20022;-69
2024/02/16 01:08:06;;;;;;;1.73;1.38;;;19.50;58.80;;;;;;5019815;28;20053;-67
2024/02/16 01:10:32;;;;;;;2.72;1.05;;;19.50;58.80;;;;;;5019794;28;20068;-66
2024/02/16 01:12:57;;;;;;;1.15;0.85;;;19.50;58.80;;;;;;5018496;28;20030;-67
2024/02/16 01:15:23;;;;;;;1.80;1.10;;;19.50;58.80;;;;;;5020518;28;20026;-64
2024/02/16 01:17:49;;;;;;;2.20;1.33;;;19.50;58.80;;;;;;5020779;28;20025;-66
2024/02/16 01:20:15;;;;;;;2.15;1.20;;;19.50;58.90;;;;;;5004698;28;20064;-67
2024/02/16 01:22:41;;;;;;;2.42;1.20;;;19.50;58.90;;;;;;5020656;28;20095;-61
2024/02/16 01:25:08;;;;;;;1.20;1.05;;;19.40;58.90;;;;;;5020886;28;20022;-63
2024/02/16 01:27:34;;;;;;;2.05;0.90;;;19.40;59.00;;;;;;5004149;28;20394;-67
2024/02/16 01:30:00;;;;;;;1.30;1.10;;;19.40;59.00;;;;;;5021276;28;20124;-66
2024/02/16 01:32:26;;;;;;;2.60;1.42;;;19.40;59.10;;;;;;5019138;28;20029;-67
2024/02/16 01:34:51;;;;;;;3.00;1.08;;;19.40;59.10;;;;;;5018877;28;20040;-67
2024/02/16 01:37:17;;;;;;;1.48;0.90;;;19.40;59.10;;;;;;5018085;28;20112;-66
2024/02/16 01:39:43;;;;;;;1.40;1.10;;;19.40;59.10;;;;;;5020287;28;20044;-65
2024/02/16 01:42:09;;;;;;;1.40;1.20;;;19.40;59.10;;;;;;5001143;28;20782;-67
2024/02/16 01:44:34;;;;;;;1.35;1.20;;;19.40;59.70;;;;;;5019086;28;20022;-67
2024/02/16 01:47:01;;;;;;;1.17;0.82;;;19.40;59.10;;;;;;5002049;28;20104;-64
2024/02/16 01:49:26;;;;;;;1.30;1.20;;;19.40;59.10;;;;;;4999357;28;20707;-64
2024/02/16 01:51:52;;;;;;;1.13;0.93;;;19.40;59.10;;;;;;5020232;28;20030;-67
2024/02/16 01:54:18;;;;;;;1.65;1.35;;;19.40;59.10;;;;;;5021221;28;20531;-67
2024/02/16 01:56:44;;;;;;;1.33;0.90;;;19.40;59.10;;;;;;5017862;28;20041;-66
2024/02/16 01:59:10;;;;;;;1.20;0.88;;;19.30;59.10;;;;;;5015023;28;20033;-62
2024/02/16 02:01:36;;;;;;;1.83;0.98;;;19.30;59.10;;;;;;5019887;28;20048;-68
2024/02/16 02:04:02;;;;;;;1.13;0.90;;;19.40;59.20;;;;;;5015268;28;20021;-65
2024/02/16 02:06:28;;;;;;;1.20;0.90;;;19.30;59.10;;;;;;5020399;28;20040;-67
2024/02/16 02:08:53;;;;;;;1.48;0.82;;;19.40;59.10;;;;;;5016843;28;21017;-66
2024/02/16 02:11:19;;;;;;;1.42;1.10;;;19.40;59.10;;;;;;5019137;28;20030;-62
2024/02/16 02:13:44;;;;;;;1.38;0.95;;;19.40;59.10;;;;;;5017705;28;20045;-66
2024/02/16 02:16:11;;;;;;;2.83;0.85;;;19.40;59.10;;;;;;5019822;28;20100;-64
2024/02/16 02:18:36;;;;;;;2.03;0.98;;;19.40;59.10;;;;;;5015815;28;20443;-66
2024/02/16 02:21:02;;;;;;;1.27;0.90;;;19.40;59.00;;;;;;5018583;28;20025;-67
2024/02/16 02:23:28;;;;;;;1.10;0.88;;;19.40;59.00;;;;;;5002497;28;20096;-62
2024/02/16 02:25:53;;;;;;;2.35;0.90;;;19.40;59.00;;;;;;5023534;28;20038;-64
2024/02/16 02:28:19;;;;;;;2.25;0.70;;;19.40;58.90;;;;;;5004943;28;20176;-66
2024/02/16 02:30:46;;;;;;;1.40;1.02;;;19.40;58.90;;;;;;5022910;28;20048;-63
2024/02/16 02:33:12;;;;;;;1.90;1.08;;;19.40;58.90;;;;;;5018925;28;20522;-67
2024/02/16 02:35:38;;;;;;;1.25;0.82;;;19.40;58.90;;;;;;5006645;28;20026;-68
2024/02/16 02:38:05;;;;;;;0.95;0.80;;;19.40;58.90;;;;;;5023520;28;20049;-66
2024/02/16 02:40:31;;;;;;;1.10;0.80;;;19.40;58.90;;;;;;5025674;28;20038;-66
2024/02/16 02:42:57;;;;;;;1.70;0.70;;;19.40;58.90;;;;;;5022641;28;20100;-67
2024/02/16 02:45:23;;;;;;;0.93;0.88;;;19.40;58.90;;;;;;5004611;28;20057;-67
2024/02/16 02:47:49;;;;;;;0.95;0.80;;;19.40;58.80;;;;;;5027193;28;20053;-66
2024/02/16 02:50:14;;;;;;;1.08;1.00;;;19.40;58.80;;;;;;5024691;28;20707;-66
2024/02/16 02:52:40;;;;;;;1.60;0.80;;;19.40;58.70;;;;;;5026522;28;20025;-67
2024/02/16 02:55:06;;;;;;;1.48;1.00;;;19.40;58.80;;;;;;5023612;28;20026;-66
2024/02/16 02:57:32;;;;;;;1.02;0.80;;;19.40;58.70;;;;;;5023190;28;20123;-67
2024/02/16 03:00:06;;;;;;;1.17;1.00;;;19.40;58.80;;;;;;5016702;28;20089;-67
2024/02/16 03:02:32;;;;;;;1.02;0.73;;;19.40;58.70;;;;;;5014148;28;20034;-67
2024/02/16 03:04:57;;;;;;;1.25;0.73;;;19.40;59.30;;;;;;5018402;28;20409;-66
2024/02/16 03:07:23;;;;;;;1.77;0.95;;;19.40;58.70;;;;;;5015448;28;20029;-68
2024/02/16 03:09:48;;;;;;;4.18;1.10;;;19.40;58.70;;;;;;5015805;28;20036;-68
2024/02/16 03:12:13;;;;;;;1.00;0.90;;;19.40;58.70;;;;;;5021369;28;20025;-68
2024/02/16 03:14:39;;;;;;;1.58;0.73;;;19.40;58.80;;;;;;5022410;28;20056;-67
2024/02/16 03:17:04;;;;;;;1.50;1.05;;;19.40;58.80;;;;;;5023058;28;20041;-67
2024/02/16 03:19:30;;;;;;;1.10;1.00;;;19.40;58.80;;;;;;5022366;28;20129;-65
2024/02/16 03:21:55;;;;;;;3.15;0.93;;;19.40;58.90;;;;;;5021863;28;20030;-67
2024/02/16 03:24:21;;;;;;;1.27;0.70;;;19.40;58.80;;;;;;5021914;28;20049;-69
2024/02/16 03:26:48;;;;;;;1.38;0.90;;;19.40;58.90;;;;;;5003588;28;20539;-66
2024/02/16 03:29:14;;;;;;;1.23;0.82;;;19.40;58.90;;;;;;5024086;28;20033;-67
2024/02/16 03:31:39;;;;;;;1.70;0.80;;;19.30;58.80;;;;;;5022130;28;20086;-69
2024/02/16 03:34:05;;;;;;;0.70;0.65;;;19.30;58.90;;;;;;5023815;28;20041;-69
2024/02/16 03:36:31;;;;;;;0.70;0.70;;;19.30;58.80;;;;;;5024624;28;20060;-66
2024/02/16 03:38:56;;;;;;;1.50;0.80;;;19.30;58.90;;;;;;5022392;28;20061;-66
2024/02/16 03:41:23;;;;;;;0.57;0.57;;;19.30;58.90;;;;;;5023876;28;20032;-68
2024/02/16 03:43:50;;;;;;;2.42;1.00;;;19.30;58.90;;;;;;5021293;28;20041;-66
2024/02/16 03:46:15;;;;;;;0.80;0.80;;;19.30;58.90;;;;;;5024817;28;20113;-69
2024/02/16 03:48:41;;;;;;;1.77;0.77;;;19.30;59.00;;;;;;5026420;28;20137;-66
2024/02/16 03:51:07;;;;;;;1.40;0.88;;;19.30;58.90;;;;;;5022858;28;20124;-67
2024/02/16 03:53:32;;;;;;;1.60;1.00;;;19.30;58.90;;;;;;5023966;28;20044;-66
2024/02/16 03:55:58;;;;;;;0.95;0.75;;;19.30;59.00;;;;;;5006741;28;20033;-68
2024/02/16 03:58:24;;;;;;;1.38;0.70;;;19.30;59.00;;;;;;5023716;28;20033;-66
2024/02/16 04:00:50;;;;;;;2.38;0.88;;;19.30;59.00;;;;;;5016338;28;20041;-69
2024/02/16 04:03:16;;;;;;;1.60;0.60;;;19.20;58.90;;;;;;5019420;28;20378;-66
2024/02/16 04:05:42;;;;;;;0.90;0.60;;;19.20;58.90;;;;;;5022299;28;20678;-69
2024/02/16 04:08:08;;;;;;;0.75;0.75;;;19.20;58.90;;;;;;5020740;28;20025;-67
2024/02/16 04:10:34;;;;;;;1.13;0.80;;;19.30;59.00;;;;;;5001448;28;20740;-67
2024/02/16 04:13:00;;;;;;;1.27;0.80;;;19.20;58.90;;;;;;5019306;28;20057;-68
2024/02/16 04:15:26;;;;;;;1.08;0.80;;;19.20;58.90;;;;;;5023531;28;20042;-67
2024/02/16 04:17:52;;;;;;;0.95;0.77;;;19.20;58.90;;;;;;5021453;28;20026;-66
2024/02/16 04:20:17;;;;;;;0.98;0.77;;;19.20;58.90;;;;;;4997368;28;20041;-68
2024/02/16 04:22:43;;;;;;;0.80;0.70;;;19.20;59.50;;;;;;5022550;28;20033;-68
2024/02/16 04:25:09;;;;;;;1.33;0.80;;;19.20;58.90;;;;;;5021349;28;20519;-70
2024/02/16 04:27:35;;;;;;;0.77;0.60;;;19.20;58.90;;;;;;5021554;28;20397;-68
2024/02/16 04:30:01;;;;;;;2.45;1.00;;;19.20;58.90;;;;;;5025199;28;20123;-66
2024/02/16 04:32:26;;;;;;;2.35;1.00;;;19.20;58.90;;;;;;5021506;28;20112;-65
2024/02/16 04:34:52;;;;;;;1.70;0.75;;;19.20;58.90;;;;;;5022300;28;20083;-67
2024/02/16 04:37:21;;;;;;;0.90;0.75;;;19.20;58.90;;;;;;5023637;28;20030;-68
2024/02/16 04:39:46;;;;;;;1.42;0.85;;;19.20;58.90;;;;;;5023558;28;20033;-68
2024/02/16 04:42:12;;;;;;;0.63;0.55;;;19.20;58.90;;;;;;5020231;28;20639;-66
2024/02/16 04:44:41;;;;;;;2.92;0.70;;;19.20;58.90;;;;;;5021021;28;20081;-66
2024/02/16 04:47:06;;;;;;;2.92;1.02;;;19.20;58.90;;;;;;5016135;28;20037;-66
2024/02/16 04:49:32;;;;;;;0.73;0.60;;;19.20;58.80;;;;;;5003361;28;20040;-66
2024/02/16 04:51:58;;;;;;;0.63;0.60;;;19.20;58.80;;;;;;5013489;28;20025;-66
2024/02/16 04:54:24;;;;;;;1.67;1.02;;;19.20;58.80;;;;;;5018712;28;20427;-69
2024/02/16 04:56:49;;;;;;;2.17;0.75;;;19.20;58.80;;;;;;5018831;28;20048;-70
2024/02/16 04:59:18;;;;;;;2.47;1.02;;;19.20;58.80;;;;;;5015276;28;20717;-67
2024/02/16 05:01:44;;;;;;;1.35;0.73;;;19.20;58.80;;;;;;5012071;28;20344;-68
2024/02/16 05:04:12;;;;;;;1.38;0.70;;;19.20;58.70;;;;;;5018649;28;20049;-66
2024/02/16 05:06:41;;;;;;;1.42;0.82;;;19.20;58.70;;;;;;5019231;28;20112;-66
2024/02/16 05:09:06;;;;;;;0.77;0.70;;;19.20;58.70;;;;;;5020922;28;20064;-67
2024/02/16 05:11:32;;;;;;;0.85;0.60;;;19.30;58.80;;;;;;5020031;28;20501;-66
2024/02/16 05:13:58;;;;;;;1.98;0.80;;;19.20;58.70;;;;;;5021333;28;20035;-66
2024/02/16 05:16:23;;;;;;;1.83;0.88;;;19.20;58.70;;;;;;5022602;28;20033;-67
2024/02/16 05:18:49;;;;;;;1.42;0.73;;;19.20;58.70;;;;;;5021207;28;20090;-68
2024/02/16 05:21:15;;;;;;;1.02;0.63;;;19.20;58.70;;;;;;5017922;28;20033;-66
2024/02/16 05:23:40;;;;;;;0.70;0.70;;;19.20;58.70;;;;;;5020032;28;20044;-67
2024/02/16 05:26:06;;;;;;;0.88;0.70;;;19.20;58.70;;;;;;5023576;28;22325;-66
2024/02/16 05:28:31;;;;;;;1.10;0.90;;;19.20;59.30;;;;;;5022762;28;20206;-66
2024/02/16 05:31:00;;;;;;;1.58;0.77;;;19.30;58.70;;;;;;5023769;28;20040;-67
2024/02/16 05:33:26;;;;;;;1.55;1.00;;;19.20;58.70;;;;;;5020389;28;20515;-67
2024/02/16 05:35:55;;;;;;;0.98;0.60;;;19.20;58.60;;;;;;4999898;28;20033;-68
2024/02/16 05:38:31;;;;;;;0.82;0.70;;;19.20;58.60;;;;;;5021468;28;20026;-68
2024/02/16 05:40:57;;;;;;;0.93;0.68;;;19.20;58.60;;;;;;5019783;28;20124;-67
2024/02/16 05:43:23;;;;;;;1.27;0.60;;;19.30;58.70;;;;;;4996402;28;20106;-67
2024/02/16 05:45:49;;;;;;;0.80;0.60;;;19.30;58.60;;;;;;5005325;28;20030;-69
2024/02/16 05:48:14;;;;;;;1.70;0.50;;;19.20;58.60;;;;;;5019711;28;20069;-70
2024/02/16 05:50:40;;;;;;;1.27;0.65;;;19.30;58.60;;;;;;5018355;28;20071;-69
2024/02/16 05:53:06;;;;;;;0.60;0.60;;;19.20;58.60;;;;;;5018699;28;20045;-65
2024/02/16 05:55:32;;;;;;;0.50;0.45;;;19.20;58.60;;;;;;5022500;28;20029;-66
2024/02/16 05:57:57;;;;;;;0.50;0.50;;;19.20;58.60;;;;;;5024107;28;20489;-66
2024/02/16 06:00:23;;;;;;;0.85;0.55;;;19.30;58.60;;;;;;5023208;28;20105;-67
2024/02/16 06:02:49;;;;;;;0.85;0.60;;;19.20;58.60;;;;;;5027374;28;20496;-66
2024/02/16 06:05:14;;;;;;;1.10;0.90;;;19.20;58.60;;;;;;5025195;28;20151;-67
2024/02/16 06:07:40;;;;;;;0.50;0.50;;;19.20;58.60;;;;;;5021833;28;21451;-66
2024/02/16 06:10:10;;;;;;;1.38;0.80;;;19.20;58.60;;;;;;5021273;28;20032;-66
2024/02/16 06:12:37;;;;;;;0.80;0.60;;;19.20;58.70;;;;;;5023028;28;20030;-67
2024/02/16 06:15:02;;;;;;;0.95;0.60;;;19.10;58.70;;;;;;5023931;28;20424;-66
2024/02/16 06:17:28;;;;;;;1.05;0.85;;;19.20;58.80;;;;;;5022915;28;20040;-66
2024/02/16 06:19:53;;;;;;;1.05;0.60;;;19.20;58.80;;;;;;5023842;28;20745;-68
2024/02/16 06:22:19;;;;;;;0.75;0.70;;;19.20;58.80;;;;;;5020975;28;20392;-68
2024/02/16 06:24:44;;;;;;;0.98;0.70;;;19.10;58.90;;;;;;5026108;28;20022;-67
2024/02/16 06:27:10;;;;;;;1.10;0.75;;;19.10;58.90;;;;;;5022218;28;20026;-67
2024/02/16 06:29:36;;;;;;;0.60;0.52;;;19.10;59.00;;;;;;5022561;28;20029;-67
2024/02/16 06:32:04;;;;;;;1.48;0.73;;;19.00;59.00;;;;;;5021239;28;20033;-66
2024/02/16 06:34:30;;;;;;;2.30;0.75;;;19.00;59.00;;;;;;5020299;28;20056;-66
2024/02/16 06:36:56;;;;;;;0.73;0.60;;;19.00;59.00;;;;;;5022152;28;20025;-66
2024/02/16 06:39:22;;;;;;;2.15;1.00;;;19.00;58.90;;;;;;5024359;28;20040;-66
2024/02/16 06:41:51;;;;;;;1.08;0.95;;;19.10;58.90;;;;;;5026563;28;20026;-68
2024/02/16 06:44:16;;;;;;;3.55;1.17;;;19.10;58.90;;;;;;5031647;28;20044;-65
2024/02/16 06:46:43;;;;;;;3.45;1.38;;;19.10;58.90;;;;;;5020188;28;20033;-68
2024/02/16 06:49:09;;;;;;;4.80;2.90;;;19.10;59.10;;;;;;5019357;28;20087;-65
2024/02/16 06:51:36;;;;;;;5.43;2.72;;;19.20;59.30;;;;;;5017676;28;20029;-66
2024/02/16 06:54:02;;;;;;;6.22;2.40;;;19.20;59.30;;;;;;5019008;28;20033;-68
2024/02/16 06:56:29;;;;;;;6.15;2.40;;;19.20;59.20;;;;;;5022206;28;20037;-68
2024/02/16 06:58:54;;;;;;;5.25;2.85;;;19.10;59.20;;;;;;5022373;28;20068;-68
2024/02/16 07:01:20;;;;;;;5.30;2.72;;;19.10;59.20;;;;;;5022453;28;20073;-65
2024/02/16 07:03:45;;;;;;;4.05;2.30;;;19.10;59.20;;;;;;5022192;28;20034;-66
2024/02/16 07:06:13;;;;;;;4.55;1.95;;;19.10;59.10;;;;;;5015909;28;20121;-67
2024/02/16 07:08:42;;;;;;;6.55;2.42;;;19.10;59.10;;;;;;5024224;28;20034;-67
2024/02/16 07:11:11;;;;;;;4.22;2.63;;;19.10;59.10;;;;;;5022922;28;20120;-66
2024/02/16 07:13:37;;;;;;;5.00;2.10;;;19.10;59.20;;;;;;5024866;28;20060;-70
2024/02/16 07:16:03;;;;;;;6.25;1.88;;;19.10;59.20;;;;;;5023577;28;20099;-67
2024/02/16 07:18:30;;;;;;;5.53;2.40;;;19.00;59.20;;;;;;5023989;28;20036;-65
2024/02/16 07:20:55;;;;;;;6.97;2.30;;;19.00;59.20;;;;;;5022307;28;20098;-66
2024/02/16 07:23:21;;;;;;;6.10;2.28;;;19.00;59.20;;;;;;5024232;28;20038;-65
2024/02/16 07:25:48;;;;;;;4.20;1.70;;;19.00;59.20;;;;;;5025564;28;20034;-67
2024/02/16 07:28:14;;;;;;;4.93;2.45;;;19.00;59.20;;;;;;5025548;28;20099;-68
2024/02/16 07:30:39;;;;;;;5.70;2.33;;;19.00;59.10;;;;;;5025163;28;20839;-65
2024/02/16 07:33:07;;;;;;;4.03;2.08;;;19.00;59.10;;;;;;5023079;28;20507;-71
2024/02/16 07:35:38;;;;;;;4.93;2.03;;;19.00;59.10;;;;;;5024957;28;20036;-68
2024/02/16 07:38:04;;;;;;;4.78;2.10;;;19.00;59.10;;;;;;5023886;28;20474;-66
2024/02/16 07:40:30;;;;;;;4.18;1.80;;;19.00;59.10;;;;;;5023663;28;20512;-67
2024/02/16 07:42:56;;;;;;;4.47;1.67;;;19.00;59.10;;;;;;5022029;28;20044;-66
2024/02/16 07:45:22;;;;;;;4.07;1.95;;;19.00;59.00;;;;;;5025107;28;20026;-66
2024/02/16 07:47:47;;;;;;;2.83;1.75;;;19.00;59.00;;;;;;5024050;28;20025;-67
2024/02/16 07:50:13;;;;;;;3.05;2.00;;;19.00;59.00;;;;;;5002703;28;20447;-68
2024/02/16 07:52:39;;;;;;;3.40;2.05;;;19.10;59.00;;;;;;5021720;28;20072;-66
2024/02/16 07:55:06;;;;;;;3.20;1.80;;;19.00;59.00;;;;;;5023265;28;20411;-67
2024/02/16 07:57:31;;;;;;;6.20;1.88;;;19.00;59.00;;;;;;5022010;28;20756;-66
2024/02/16 07:59:57;;;;;;;4.45;2.22;;;19.00;59.00;;;;;;5024701;28;20113;-67
2024/02/16 08:02:22;;;;;;;3.30;1.55;;;19.00;59.20;;;;;;5023080;28;20057;-66
2024/02/16 08:04:49;;;;;;;4.72;1.67;;;19.00;59.20;;;;;;5025242;28;20412;-67
2024/02/16 08:07:16;;;;;;;6.15;2.33;;;19.10;59.50;;;;;;5020311;28;20067;-64
2024/02/16 08:09:44;;;;;;;8.57;3.30;;;19.10;59.70;;;;;;5022513;28;20044;-64
2024/02/16 08:12:09;;;;;;;13.55;4.35;;;19.10;59.90;;;;;;4999185;28;20516;-66
2024/02/16 08:14:35;;;;;;;16.58;5.43;;;19.10;59.80;;;;;;5016753;28;20049;-66
2024/02/16 08:17:00;;;;;;;13.35;4.40;;;19.10;60.00;;;;;;5012072;28;20512;-64
2024/02/16 08:19:36;;;;;;;16.38;4.38;;;19.20;60.10;;;;;;4996733;28;20045;-68
2024/02/16 08:22:04;;;;;;;13.90;3.97;;;19.20;60.10;;;;;;5016404;28;20034;-68
2024/02/16 08:24:32;;;;;;;12.32;4.20;;;19.10;60.00;;;;;;5017392;28;20062;-65
2024/02/16 08:26:57;;;;;;;15.75;4.47;;;19.20;60.10;;;;;;5019182;28;20095;-66
2024/02/16 08:29:23;;;;;;;15.02;3.33;;;19.20;60.10;;;;;;5016347;28;20088;-65
2024/02/16 08:31:52;;;;;;;11.93;3.58;;;19.10;60.00;;;;;;5017918;28;20041;-66
2024/02/16 08:34:17;;;;;;;17.27;4.28;;;19.20;60.10;;;;;;4999561;28;20048;-65
2024/02/16 08:36:49;;;;;;;13.15;4.13;;;19.20;60.10;;;;;;5017011;28;20038;-66
2024/02/16 08:39:16;;;;;;;8.55;3.60;;;19.20;60.00;;;;;;4943472;28;20073;-66
2024/02/16 08:41:44;;;;;;;16.02;3.67;;;19.20;60.00;;;;;;5013603;28;20041;-66
2024/02/16 08:44:10;;;;;;;7.40;2.88;;;19.10;59.90;;;;;;5012776;28;20592;-65
2024/02/16 08:46:36;;;;;;;11.63;3.42;;;19.20;60.00;;;;;;5014152;28;20661;-65
2024/02/16 08:49:02;;;;;;;10.70;4.00;;;19.20;60.00;;;;;;5006849;28;20044;-65
2024/02/16 08:51:28;;;;;;;9.43;2.85;;;19.20;60.00;;;;;;4974338;28;20576;-67
2024/02/16 08:53:54;;;;;;;8.40;3.00;;;19.20;59.90;;;;;;5013805;28;20042;-65
2024/02/16 08:56:19;;;;;;;9.32;3.10;;;19.20;59.90;;;;;;4957110;28;20045;-68
2024/02/16 08:58:44;;;;;;;7.10;2.80;;;19.20;59.80;;;;;;5016102;28;20025;-65
2024/02/16 09:01:10;;;;;;;8.85;3.88;;;19.20;59.80;;;;;;5017323;28;20688;-67
2024/02/16 09:03:40;;;;;;;7.55;3.17;;;19.20;59.80;;;;;;5013236;28;20117;-67
2024/02/16 09:06:06;;;;;;;6.65;2.72;;;19.20;59.70;;;;;;5015489;28;20075;-66
2024/02/16 09:08:33;;;;;;;9.18;2.75;;;19.20;59.70;;;;;;5016999;28;20033;-65
2024/02/16 09:11:05;;;;;;;9.07;3.47;;;19.20;59.70;;;;;;5015386;28;20055;-66
2024/02/16 09:13:35;;;;;;;6.90;2.22;;;19.20;59.60;;;;;;5009660;28;20041;-65
2024/02/16 09:16:03;;;;;;;7.65;2.28;;;19.20;59.50;;;;;;5011116;28;20049;-65
2024/02/16 09:18:29;;;;;;;8.15;3.05;;;19.20;59.50;;;;;;5016415;28;20038;-65
2024/02/16 09:20:54;;;;;;;7.53;2.50;;;19.20;59.40;;;;;;5013694;28;20614;-66
2024/02/16 09:23:20;;;;;;;4.95;2.35;;;19.30;59.40;;;;;;5015861;28;20040;-68
2024/02/16 09:25:49;;;;;;;6.20;2.10;;;19.30;59.30;;;;;;4975989;28;20524;-65
2024/02/16 09:28:14;;;;;;;6.95;2.70;;;19.30;59.20;;;;;;5020409;28;20160;-68
2024/02/16 09:30:40;;;;;;;6.93;2.50;;;19.30;59.10;;;;;;4980960;28;20057;-66
2024/02/16 09:33:07;;;;;;;7.07;2.20;;;19.40;59.10;;;;;;5007005;28;20080;-66
2024/02/16 09:35:33;;;;;;;6.93;2.55;;;19.40;59.00;;;;;;5024736;28;20048;-67
2024/02/16 09:37:58;;;;;;;5.15;2.35;;;19.40;59.00;;;;;;5025909;28;20396;-66
2024/02/16 09:40:24;;;;;;;5.25;1.90;;;19.40;58.90;;;;;;5017402;28;20167;-66
2024/02/16 09:42:50;;;;;;;6.38;2.40;;;19.40;58.90;;;;;;5018126;28;20424;-64
2024/02/16 09:45:16;;;;;;;4.85;2.25;;;19.40;58.90;;;;;;5017483;28;20033;-66
2024/02/16 09:47:43;;;;;;;4.63;1.92;;;19.40;58.90;;;;;;5019821;28;20033;-65
2024/02/16 09:50:09;;;;;;;7.43;2.65;;;19.40;58.90;;;;;;5018193;28;20447;-66
2024/02/16 09:52:36;;;;;;;4.28;1.88;;;19.40;58.90;;;;;;5021853;28;20037;-68
2024/02/16 09:55:02;;;;;;;3.58;2.10;;;19.40;58.90;;;;;;5013566;28;20026;-65
2024/02/16 09:57:27;;;;;;;6.10;1.98;;;19.40;58.90;;;;;;5001970;28;20052;-65
2024/02/16 09:59:53;;;;;;;5.13;1.88;;;19.40;58.90;;;;;;5020850;28;20079;-67
2024/02/16 10:02:18;;;;;;;4.82;2.03;;;19.50;58.90;;;;;;5022296;28;20030;-67
2024/02/16 10:04:44;;;;;;;4.22;1.85;;;19.50;58.90;;;;;;5022211;28;20036;-65
2024/02/16 10:07:09;;;;;;;4.47;1.70;;;19.50;58.90;;;;;;5004124;28;20038;-66
2024/02/16 10:09:35;;;;;;;5.40;2.03;;;19.50;58.90;;;;;;5024927;28;20061;-69
2024/02/16 10:12:01;;;;;;;5.28;2.10;;;19.50;58.90;;;;;;5023129;28;20132;-67
2024/02/16 10:14:27;;;;;;;8.32;2.45;;;19.50;58.90;;;;;;5022866;28;20088;-67
2024/02/16 10:17:00;;;;;;;6.38;2.20;;;19.50;58.80;;;;;;5024543;28;20036;-65
2024/02/16 10:19:26;;;;;;;3.33;1.95;;;19.50;58.70;;;;;;5020785;28;20037;-66
2024/02/16 10:21:51;;;;;;;4.25;1.80;;;19.60;58.70;;;;;;5006003;28;20025;-66
2024/02/16 10:24:21;;;;;;;5.97;1.63;;;19.60;58.70;;;;;;5024811;28;20068;-67
2024/02/16 10:26:47;;;;;;;3.78;1.65;;;19.50;58.60;;;;;;5020275;28;20083;-67
2024/02/16 10:29:19;;;;;;;5.03;1.73;;;19.60;58.50;;;;;;5024186;28;20435;-70
2024/02/16 10:31:45;;;;;;;5.45;1.83;;;19.60;58.60;;;;;;5021586;28;20026;-65
2024/02/16 10:34:11;;;;;;;3.60;1.55;;;19.60;58.50;;;;;;5021423;28;20048;-64
2024/02/16 10:36:37;;;;;;;3.38;1.45;;;19.60;58.50;;;;;;5023006;28;20120;-65
2024/02/16 10:39:05;;;;;;;4.80;1.30;;;19.60;58.40;;;;;;5022393;28;20037;-68
2024/02/16 10:41:34;;;;;;;2.47;1.40;;;19.60;58.40;;;;;;5021552;28;20037;-66
2024/02/16 10:44:01;;;;;;;4.57;1.73;;;19.60;58.30;;;;;;5021899;28;20560;-66
2024/02/16 10:46:27;;;;;;;2.63;1.48;;;19.60;58.30;;;;;;5023029;28;20041;-65
2024/02/16 10:48:53;;;;;;;2.70;1.50;;;19.60;58.80;;;;;;5022951;28;20041;-65
2024/02/16 10:51:34;;;;;;;4.80;2.13;;;19.60;58.20;;;;;;5021835;28;20033;-70
2024/02/16 10:54:00;;;;;;;4.50;1.42;;;19.60;58.20;;;;;;5022253;28;20044;-68
2024/02/16 10:56:31;;;;;;;4.50;1.40;;;19.60;58.10;;;;;;5021051;28;20033;-65
2024/02/16 10:59:00;;;;;;;2.30;1.55;;;19.60;58.00;;;;;;5023712;28;20025;-68
2024/02/16 11:01:26;;;;;;;2.03;1.10;;;19.60;58.00;;;;;;5020941;28;20700;-67
2024/02/16 11:04:01;;;;;;;3.28;1.30;;;19.60;58.00;;;;;;5021318;28;20029;-65
2024/02/16 11:06:27;;;;;;;4.53;1.50;;;19.60;58.00;;;;;;5022723;28;20034;-66
2024/02/16 11:08:52;;;;;;;3.10;1.10;;;19.60;57.90;;;;;;5023703;28;20098;-65
2024/02/16 11:11:27;;;;;;;4.63;1.40;;;19.70;57.80;;;;;;5022214;28;20040;-64
2024/02/16 11:13:56;;;;;;;3.47;1.53;;;19.70;57.80;;;;;;5021338;28;20038;-65
2024/02/16 11:16:22;;;;;;;3.55;1.40;;;19.70;57.70;;;;;;5024110;28;20412;-66
2024/02/16 11:18:49;;;;;;;2.38;1.30;;;19.70;57.60;;;;;;5002332;28;20510;-67
2024/02/16 11:21:15;;;;;;;3.58;1.27;;;19.70;57.60;;;;;;5023375;28;20091;-65
2024/02/16 11:23:41;;;;;;;5.00;1.27;;;19.70;57.40;;;;;;5022912;28;20076;-64
2024/02/16 11:26:12;;;;;;;2.28;1.30;;;19.80;57.40;;;;;;5021882;28;20029;-65
2024/02/16 11:28:40;;;;;;;2.45;1.30;;;19.80;57.30;;;;;;5023390;28;20092;-64
2024/02/16 11:31:09;;;;;;;6.28;1.65;;;19.80;57.20;;;;;;5011559;28;20048;-65
2024/02/16 11:33:35;;;;;;;7.97;2.30;;;19.80;57.20;;;;;;5017124;28;20053;-65
2024/02/16 11:36:03;;;;;;;10.02;4.70;;;19.80;57.40;;;;;;5021058;28;20029;-65
2024/02/16 11:38:33;;;;;;;20.30;12.35;;;19.80;57.60;;;;;;5022185;28;20686;-65
2024/02/16 11:40:59;;;;;;;43.08;28.35;;;19.80;57.90;;;;;;5019720;28;20059;-64
2024/02/16 11:43:25;;;;;;;53.75;35.28;;;19.80;58.30;;;;;;5021044;28;20021;-64
2024/02/16 11:45:52;;;;;;;63.03;39.60;;;19.90;58.40;;;;;;5022629;28;20048;-66
2024/02/16 11:48:27;;;;;;;64.38;42.35;;;19.90;58.30;;;;;;5020525;28;20083;-64
2024/02/16 11:51:01;;;;;;;59.63;40.42;;;19.90;58.30;;;;;;5021455;28;20645;-65
2024/02/16 11:53:28;;;;;;;63.10;37.78;;;19.90;58.10;;;;;;5020804;28;20029;-64
2024/02/16 11:55:53;;;;;;;57.08;35.55;;;20.00;57.90;;;;;;5002492;28;20056;-64
2024/02/16 11:58:20;;;;;;;44.08;30.38;;;20.00;57.70;;;;;;5021052;28;20033;-66
2024/02/16 12:00:47;;;;;;;39.88;27.83;;;20.00;57.60;;;;;;5021063;28;20036;-66
2024/02/16 12:03:22;;;;;;;34.00;24.50;;;20.00;57.40;;;;;;5004690;28;20056;-67
2024/02/16 12:05:51;;;;;;;36.67;22.67;;;19.90;57.20;;;;;;5021771;28;20022;-66
2024/02/16 12:08:16;;;;;;;26.42;20.08;;;20.00;57.10;;;;;;5019101;28;20448;-65
2024/02/16 12:10:42;;;;;;;25.15;18.50;;;19.90;56.90;;;;;;5021438;28;20030;-65
2024/02/16 12:13:09;;;;;;;22.40;16.50;;;20.00;56.90;;;;;;5021448;28;20044;-64
2024/02/16 12:15:37;;;;;;;23.20;15.35;;;20.00;56.70;;;;;;5020677;28;20036;-66
2024/02/16 12:18:03;;;;;;;21.65;14.30;;;20.00;56.60;;;;;;5022201;28;20037;-66
2024/02/16 12:20:31;;;;;;;19.92;12.55;;;20.00;56.60;;;;;;5021128;28;20034;-65
2024/02/16 12:22:59;;;;;;;16.33;10.88;;;19.90;56.50;;;;;;5019928;28;20026;-63
2024/02/16 12:25:24;;;;;;;13.35;9.68;;;20.00;56.60;;;;;;5020053;28;20034;-65
2024/02/16 12:27:50;;;;;;;12.90;8.40;;;20.00;56.50;;;;;;5020921;28;20044;-66
2024/02/16 12:30:15;;;;;;;12.95;8.80;;;20.00;56.40;;;;;;5021659;28;20052;-65
2024/02/16 12:32:41;;;;;;;10.55;7.38;;;19.90;56.30;;;;;;5020292;28;20267;-64
2024/02/16 12:35:07;;;;;;;11.55;6.43;;;19.90;56.20;;;;;;5021061;28;20035;-65
2024/02/16 12:37:34;;;;;;;8.68;6.50;;;20.00;56.30;;;;;;5019128;28;20030;-66
2024/02/16 12:40:01;;;;;;;9.65;5.80;;;19.90;56.20;;;;;;5020053;28;20029;-66